Photometre #44[NE_1.6] Rome_La_Sapienza AOT

File : 20221123_44.hum

23/11/2022,07:05:40,TEMP=9.1,BA=5.68,STAT.A=7.0,ExtBa=13.35
23/11/2022,07:09:57,TEMP=9.3,BA=5.68,STAT.A=7.0,ExtBa=13.26
23/11/2022,07:15:01,TEMP=9.5,BA=5.64,STAT.A=7.0,ExtBa=13.22
23/11/2022,07:21:07,TEMP=9.8,BA=5.68,STAT.A=7.0,ExtBa=13.21
23/11/2022,07:28:35,TEMP=10.2,BA=5.68,STAT.A=7.0,ExtBa=13.24
23/11/2022,07:38:00,TEMP=10.8,BA=5.60,STAT.A=7.0,ExtBa=13.21
23/11/2022,07:50:14,TEMP=11.4,BA=5.68,STAT.B=7.0,ExtBa=13.31
23/11/2022,08:03:14,TEMP=11.4,BA=5.56,STAT.A=7.0,ExtBa=13.07
23/11/2022,08:18:07,TEMP=12.1,BA=5.68,STAT.F,ExtBa=13.34
23/11/2022,08:37:17,TEMP=12.3,BA=5.56,STAT.D=7.0,ExtBa=13.06
23/11/2022,08:40:17,TEMP=12.6,BA=5.60,STAT.D=7.0,ExtBa=13.11
23/11/2022,08:43:16,TEMP=12.9,BA=5.60,STAT.D=7.0,ExtBa=13.14
23/11/2022,08:56:37,TEMP=13.7,BA=5.68,STAT.F,ExtBa=13.35
23/11/2022,09:14:47,TEMP=14.4,BA=5.56,STAT.D=7.0,ExtBa=13.04
23/11/2022,09:26:36,TEMP=14.7,BA=5.68,STAT.D=7.0,ExtBa=13.32
23/11/2022,09:41:36,TEMP=16.1,BA=5.68,STAT.D=7.0,ExtBa=13.40
23/11/2022,09:56:38,TEMP=16.5,BA=5.68,STAT.F,ExtBa=13.43
23/11/2022,10:15:54,TEMP=15.4,BA=5.56,STAT.D=7.0,ExtBa=13.03
23/11/2022,10:26:36,TEMP=16.2,BA=5.68,STAT.D=7.0,ExtBa=13.30
23/11/2022,10:41:36,TEMP=17.3,BA=5.68,STAT.D=7.0,ExtBa=13.37
23/11/2022,10:56:38,TEMP=18.7,BA=5.68,STAT.F,ExtBa=13.42
23/11/2022,11:14:31,TEMP=19.1,BA=5.52,STAT.D=7.0,ExtBa=13.02
23/11/2022,11:26:36,TEMP=19.8,BA=5.68,STAT.D=7.0,ExtBa=13.32
23/11/2022,11:41:36,TEMP=21.0,BA=5.68,STAT.D=7.0,ExtBa=13.40
23/11/2022,11:56:38,TEMP=20.8,BA=5.68,STAT.F,ExtBa=13.42
23/11/2022,12:14:28,TEMP=19.9,BA=5.52,STAT.D=8.0,ExtBa=13.02
23/11/2022,12:26:36,TEMP=20.1,BA=5.68,STAT.D=7.0,ExtBa=13.32
23/11/2022,12:41:36,TEMP=20.4,BA=5.68,STAT.D=8.0,ExtBa=13.40
23/11/2022,12:56:38,TEMP=21.3,BA=5.68,STAT.F,ExtBa=13.42
23/11/2022,13:14:43,TEMP=20.2,BA=5.52,STAT.b=8.0
23/11/2022,13:26:35,TEMP=20.7,BA=5.68,STAT.D=7.0,ExtBa=13.32
23/11/2022,13:41:36,TEMP=20.1,BA=5.68,STAT.D=8.0,ExtBa=13.40
23/11/2022,13:56:37,TEMP=19.3,BA=5.68,STAT.F,ExtBa=13.42
23/11/2022,14:09:37,TEMP=19.2,BA=5.52,STAT.b=8.0
23/11/2022,14:11:01,TEMP=19.2,BA=5.52,STAT.A=7.0,ExtBa=13.05
23/11/2022,14:14:15,TEMP=19.0,BA=5.52,STAT.B=7.0,ExtBa=13.07
23/11/2022,14:27:27,TEMP=18.3,BA=5.52,STAT.A=8.0,ExtBa=12.95
23/11/2022,14:30:41,TEMP=18.3,BA=5.52,STAT.A=7.0,ExtBa=12.97
23/11/2022,14:33:50,TEMP=18.2,BA=5.52,STAT.A=7.0,ExtBa=13.00
23/11/2022,14:38:13,TEMP=17.8,BA=5.52,STAT.A=7.0,ExtBa=13.09
23/11/2022,14:43:17,TEMP=17.2,BA=5.52,STAT.A=7.0,ExtBa=13.19
23/11/2022,14:47:34,TEMP=16.7,BA=5.52,STAT.A=7.0,ExtBa=13.24